createdAt,value
2022-11-24T00:00:50.457Z,1.80
2022-11-24T00:03:17.096Z,1.93
2022-11-24T00:05:43.726Z,1.93
2022-11-24T00:08:10.644Z,1.80
2022-11-24T00:10:37.047Z,1.60
2022-11-24T00:13:03.495Z,1.77
2022-11-24T00:15:29.856Z,2.03
2022-11-24T00:17:56.523Z,1.67
2022-11-24T00:20:23.420Z,1.70
2022-11-24T00:22:49.788Z,1.87
2022-11-24T00:25:16.179Z,1.60
2022-11-24T00:27:42.531Z,2.00
2022-11-24T00:30:09.862Z,1.80
2022-11-24T00:32:36.246Z,1.70
2022-11-24T00:35:02.705Z,1.70
2022-11-24T00:37:29.114Z,2.30
2022-11-24T00:39:55.501Z,1.70
2022-11-24T00:42:21.873Z,1.20
2022-11-24T00:44:48.259Z,1.90
2022-11-24T00:47:14.797Z,1.90
2022-11-24T00:49:41.231Z,1.70
2022-11-24T00:52:07.730Z,1.67
2022-11-24T00:54:34.436Z,2.03
2022-11-24T00:57:01.144Z,1.57
2022-11-24T00:59:27.511Z,1.90
2022-11-24T01:01:53.955Z,1.43
2022-11-24T01:04:20.398Z,1.37
2022-11-24T01:06:46.845Z,1.90
2022-11-24T01:09:13.236Z,1.60
2022-11-24T01:11:58.379Z,1.90
2022-11-24T01:14:25.444Z,1.57
2022-11-24T01:16:52.281Z,1.30
2022-11-24T01:19:19.225Z,1.53
2022-11-24T01:21:45.906Z,1.47
2022-11-24T01:24:12.942Z,1.30
2022-11-24T01:26:40.687Z,2.10
2022-11-24T01:29:07.236Z,1.50
2022-11-24T01:31:33.724Z,1.50
2022-11-24T01:34:00.083Z,1.20
2022-11-24T01:36:26.447Z,1.50
2022-11-24T01:38:52.865Z,1.30
2022-11-24T01:41:22.603Z,1.83
2022-11-24T01:43:50.348Z,1.70
2022-11-24T01:46:29.898Z,1.90
2022-11-24T01:49:00.652Z,1.63
2022-11-24T01:51:30.413Z,1.60
2022-11-24T01:54:11.180Z,1.83
2022-11-24T01:56:41.086Z,1.60
2022-11-24T01:59:11.999Z,1.60
2022-11-24T02:01:38.464Z,1.93
2022-11-24T02:04:10.937Z,1.37
2022-11-24T02:06:40.039Z,1.40
2022-11-24T02:09:30.552Z,1.87
2022-11-24T02:11:59.506Z,1.80
2022-11-24T02:14:27.296Z,1.97
2022-11-24T02:16:54.055Z,1.87
2022-11-24T02:19:29.236Z,1.70
2022-11-24T02:21:55.672Z,1.90
2022-11-24T02:24:29.579Z,1.77
2022-11-24T02:26:56.019Z,1.60
2022-11-24T02:29:22.543Z,1.90
2022-11-24T02:31:55.089Z,1.23
2022-11-24T02:34:21.529Z,1.67
2022-11-24T02:36:47.922Z,1.67
2022-11-24T02:39:16.178Z,1.33
2022-11-24T02:41:46.124Z,1.47
2022-11-24T02:44:15.511Z,1.80
2022-11-24T02:46:42.079Z,1.43
2022-11-24T02:49:08.570Z,1.40
2022-11-24T02:51:35.015Z,1.50
2022-11-24T02:54:01.517Z,1.30
2022-11-24T02:56:27.890Z,1.27
2022-11-24T02:58:54.243Z,1.37
2022-11-24T03:01:20.720Z,1.50
2022-11-24T03:03:48.400Z,1.60
2022-11-24T03:06:14.827Z,1.67
2022-11-24T03:08:41.226Z,1.90
2022-11-24T03:11:07.579Z,1.63
2022-11-24T03:13:35.247Z,1.30
2022-11-24T03:16:01.927Z,1.40
2022-11-24T03:18:28.414Z,1.47
2022-11-24T03:20:59.487Z,1.60
2022-11-24T03:23:26.207Z,1.57
2022-11-24T03:25:52.552Z,1.57
2022-11-24T03:28:18.913Z,1.50
2022-11-24T03:30:49.027Z,1.27
2022-11-24T03:33:15.496Z,1.10
2022-11-24T03:35:42.244Z,1.90
2022-11-24T03:38:08.596Z,1.43
2022-11-24T03:40:35.061Z,1.20
2022-11-24T03:43:01.480Z,1.30
2022-11-24T03:45:45.415Z,1.67
2022-11-24T03:48:13.491Z,1.43
2022-11-24T03:50:39.997Z,1.23
2022-11-24T03:53:06.377Z,1.30
2022-11-24T03:55:32.851Z,1.20
2022-11-24T03:57:59.323Z,1.80
2022-11-24T04:00:26.241Z,1.27
2022-11-24T04:02:52.656Z,1.30
2022-11-24T04:05:19.130Z,1.30
2022-11-24T04:07:45.630Z,1.33
2022-11-24T04:10:12.032Z,1.40
2022-11-24T04:12:44.420Z,1.30
2022-11-24T04:15:15.690Z,1.30
2022-11-24T04:17:42.413Z,1.20
2022-11-24T04:20:10.361Z,0.90
2022-11-24T04:22:37.337Z,1.40
2022-11-24T04:25:04.422Z,0.90
2022-11-24T04:27:32.780Z,1.23
2022-11-24T04:29:59.349Z,1.13
2022-11-24T04:32:25.716Z,1.37
2022-11-24T04:34:52.113Z,0.93
2022-11-24T04:37:18.697Z,1.10
2022-11-24T04:39:46.218Z,1.03
2022-11-24T04:42:13.268Z,1.27
2022-11-24T04:44:40.061Z,0.97
2022-11-24T04:47:06.751Z,1.00
2022-11-24T04:49:33.215Z,1.30
2022-11-24T04:51:59.597Z,1.33
2022-11-24T04:54:25.992Z,1.50
2022-11-24T04:56:52.692Z,1.27
2022-11-24T04:59:19.769Z,1.47
2022-11-24T05:01:46.844Z,1.07
2022-11-24T05:04:15.530Z,1.80
2022-11-24T05:06:42.406Z,1.43
2022-11-24T05:09:13.412Z,1.23
2022-11-24T05:11:39.818Z,1.20
2022-11-24T05:14:06.204Z,1.23
2022-11-24T05:16:32.700Z,1.30
2022-11-24T05:18:59.187Z,1.10
2022-11-24T05:21:25.795Z,1.23
2022-11-24T05:23:52.116Z,1.17
2022-11-24T05:26:18.490Z,1.43
2022-11-24T05:28:45.246Z,1.10
2022-11-24T05:31:11.729Z,1.80
2022-11-24T05:33:38.261Z,1.30
2022-11-24T05:36:06.526Z,1.50
2022-11-24T05:38:33.818Z,1.33
2022-11-24T05:41:05.128Z,1.80
2022-11-24T05:43:32.007Z,1.27
2022-11-24T05:46:01.864Z,1.17
2022-11-24T05:48:28.352Z,1.63
2022-11-24T05:50:58.499Z,1.27
2022-11-24T05:53:26.860Z,1.73
2022-11-24T05:55:53.309Z,1.90
2022-11-24T05:58:19.846Z,1.20
2022-11-24T06:00:46.461Z,1.50
2022-11-24T06:03:13.078Z,1.10
2022-11-24T06:05:39.598Z,1.77
2022-11-24T06:08:06.121Z,1.40
2022-11-24T06:10:32.547Z,2.13
2022-11-24T06:12:59.017Z,1.57
2022-11-24T06:15:25.406Z,1.57
2022-11-24T06:17:55.979Z,1.70
2022-11-24T06:20:28.348Z,1.47
2022-11-24T06:22:59.155Z,1.30
2022-11-24T06:25:26.256Z,1.57
2022-11-24T06:27:52.734Z,2.40
2022-11-24T06:30:19.323Z,1.77
2022-11-24T06:32:49.454Z,1.37
2022-11-24T06:35:16.847Z,1.93
2022-11-24T06:37:43.279Z,2.20
2022-11-24T06:40:10.215Z,1.30
2022-11-24T06:42:37.484Z,1.90
2022-11-24T06:45:08.782Z,1.80
2022-11-24T06:47:35.998Z,1.70
2022-11-24T06:50:02.709Z,1.47
2022-11-24T06:52:29.191Z,2.27
2022-11-24T06:54:55.737Z,1.20
2022-11-24T06:57:22.170Z,2.20
2022-11-24T06:59:48.715Z,1.90
2022-11-24T07:02:15.280Z,1.63
2022-11-24T07:04:41.674Z,2.17
2022-11-24T07:07:08.145Z,1.40
2022-11-24T07:09:34.620Z,1.90
2022-11-24T07:12:02.281Z,2.20
2022-11-24T07:14:28.676Z,1.97
2022-11-24T07:16:55.114Z,1.77
2022-11-24T07:19:24.902Z,2.23
2022-11-24T07:21:51.541Z,1.80
2022-11-24T07:24:17.978Z,1.90
2022-11-24T07:26:44.752Z,2.00
2022-11-24T07:29:11.133Z,2.03
2022-11-24T07:31:37.889Z,2.20
2022-11-24T07:34:04.397Z,2.27
2022-11-24T07:36:30.924Z,2.27
2022-11-24T07:38:57.670Z,2.37
2022-11-24T07:41:24.211Z,2.77
2022-11-24T07:43:51.544Z,1.77
2022-11-24T07:46:19.430Z,2.77
2022-11-24T07:48:46.878Z,2.00
2022-11-24T07:51:13.367Z,2.70
2022-11-24T07:53:39.989Z,2.13
2022-11-24T07:56:07.116Z,1.90
2022-11-24T07:58:36.021Z,2.43
2022-11-24T08:01:13.241Z,2.57
2022-11-24T08:03:40.434Z,2.37
2022-11-24T08:06:24.008Z,1.80
2022-11-24T08:08:52.851Z,1.93
2022-11-24T08:11:19.377Z,1.70
2022-11-24T08:13:45.943Z,2.00
2022-11-24T08:16:15.074Z,1.70
2022-11-24T08:18:42.890Z,1.77
2022-11-24T08:21:14.236Z,1.60
2022-11-24T08:23:41.573Z,1.53
2022-11-24T08:26:13.856Z,1.20
2022-11-24T08:28:40.318Z,1.60
2022-11-24T08:31:09.624Z,1.77
2022-11-24T08:33:37.147Z,1.73
2022-11-24T08:36:08.843Z,1.70
2022-11-24T08:38:35.361Z,1.30
2022-11-24T08:41:03.779Z,1.10
2022-11-24T08:43:30.757Z,1.70
2022-11-24T08:46:06.289Z,1.33
2022-11-24T08:48:33.919Z,1.67
2022-11-24T08:51:07.753Z,1.70
2022-11-24T08:53:34.422Z,1.47
2022-11-24T08:56:01.443Z,1.60
2022-11-24T08:58:30.999Z,1.50
2022-11-24T09:01:13.828Z,1.63
2022-11-24T09:03:46.590Z,1.20
2022-11-24T09:06:15.712Z,0.90
2022-11-24T09:08:42.274Z,1.20
2022-11-24T09:11:13.830Z,0.70
2022-11-24T09:13:41.163Z,0.90
2022-11-24T09:16:11.185Z,0.93
2022-11-24T09:18:38.455Z,0.60
2022-11-24T09:21:21.692Z,0.93
2022-11-24T09:23:50.728Z,0.83
2022-11-24T09:26:23.020Z,1.23
2022-11-24T09:28:50.324Z,1.00
2022-11-24T09:31:17.988Z,0.87
2022-11-24T09:33:45.031Z,0.53
2022-11-24T09:36:11.448Z,0.60
2022-11-24T09:38:38.066Z,0.90
2022-11-24T09:41:43.389Z,0.60
2022-11-24T09:44:54.549Z,0.80
2022-11-24T09:47:42.492Z,0.93
2022-11-24T09:50:18.359Z,0.90
2022-11-24T09:53:00.996Z,0.97
2022-11-24T09:55:33.536Z,0.80
2022-11-24T09:58:38.457Z,0.70
2022-11-24T10:01:26.203Z,0.57
2022-11-24T10:03:54.292Z,0.70
2022-11-24T10:06:26.346Z,0.70
2022-11-24T10:09:07.908Z,0.60
2022-11-24T10:12:02.339Z,0.43
2022-11-24T10:14:41.754Z,0.50
2022-11-24T10:17:53.069Z,0.60
2022-11-24T10:20:27.832Z,0.60
2022-11-24T10:23:17.191Z,0.50
2022-11-24T10:26:16.206Z,0.63
2022-11-24T10:28:55.105Z,0.50
2022-11-24T10:31:45.721Z,0.60
2022-11-24T10:34:25.576Z,0.70
2022-11-24T10:36:58.087Z,0.77
2022-11-24T10:39:39.885Z,0.70
2022-11-24T10:42:18.198Z,0.70
2022-11-24T10:44:44.708Z,0.50
2022-11-24T10:47:34.401Z,0.80
2022-11-24T10:50:26.434Z,0.90
2022-11-24T10:53:18.475Z,0.60
2022-11-24T10:55:56.810Z,0.80
2022-11-24T10:58:37.719Z,0.70
2022-11-24T11:01:13.713Z,0.80
2022-11-24T11:03:59.969Z,0.60
2022-11-24T11:06:36.258Z,0.80
2022-11-24T11:09:08.396Z,0.60
2022-11-24T11:11:36.339Z,0.70
2022-11-24T11:14:05.853Z,0.60
2022-11-24T11:16:38.064Z,0.60
2022-11-24T11:19:47.740Z,0.60
2022-11-24T11:22:12.050Z,0.60
2022-11-24T11:24:43.347Z,0.60
2022-11-24T11:27:30.044Z,0.60
2022-11-24T11:36:11.155Z,0.73
2022-11-24T11:38:39.145Z,1.00
2022-11-24T11:41:10.734Z,0.80
2022-11-24T11:43:41.010Z,0.80
2022-11-24T11:46:18.207Z,0.73
2022-11-24T11:48:46.839Z,0.60
2022-11-24T11:51:24.479Z,1.00
2022-11-24T11:54:38.577Z,0.87
2022-11-24T11:57:13.237Z,0.90
2022-11-24T11:59:42.174Z,0.90
2022-11-24T12:02:51.548Z,1.10
2022-11-24T12:05:49.855Z,1.00
2022-11-24T12:09:17.795Z,0.90
2022-11-24T12:11:43.607Z,1.20
2022-11-24T12:14:18.936Z,1.20
2022-11-24T12:17:22.620Z,0.93
2022-11-24T12:20:03.772Z,0.93
2022-11-24T12:22:39.210Z,1.03
2022-11-24T12:25:30.213Z,1.10
2022-11-24T12:28:18.200Z,1.53
2022-11-24T12:31:09.371Z,0.90
2022-11-24T12:34:14.660Z,1.03
2022-11-24T12:36:57.850Z,0.80
2022-11-24T12:39:52.838Z,1.43
2022-11-24T12:42:40.898Z,1.43
2022-11-24T12:45:14.330Z,1.27
2022-11-24T12:48:07.135Z,1.10
2022-11-24T12:50:38.998Z,1.17
2022-11-24T12:53:25.419Z,1.37
2022-11-24T12:55:53.116Z,1.17
2022-11-24T12:58:41.338Z,1.27
2022-11-24T13:01:18.436Z,1.00
2022-11-24T13:04:03.169Z,1.10
2022-11-24T13:06:39.722Z,0.90
2022-11-24T13:09:09.379Z,0.70
2022-11-24T13:11:41.908Z,1.20
2022-11-24T13:14:30.452Z,1.27
2022-11-24T13:17:28.485Z,1.30
2022-11-24T13:19:46.126Z,1.20
2022-11-24T13:22:24.210Z,1.40
2022-11-24T13:25:28.676Z,1.00
2022-11-24T13:28:00.188Z,1.03
2022-11-24T13:30:35.674Z,1.30
2022-11-24T13:33:16.014Z,1.10
2022-11-24T13:36:04.006Z,1.37
2022-11-24T13:38:45.686Z,1.20
2022-11-24T13:41:32.270Z,0.97
2022-11-24T13:44:17.151Z,1.47
2022-11-24T13:47:06.244Z,0.90
2022-11-24T13:49:41.206Z,0.97
2022-11-24T13:52:38.727Z,1.30
2022-11-24T13:55:11.765Z,1.40
2022-11-24T13:57:41.461Z,0.90
2022-11-24T14:00:32.264Z,1.23
2022-11-24T14:03:36.262Z,1.63
2022-11-24T14:06:03.888Z,1.03
2022-11-24T14:08:37.641Z,1.50
2022-11-24T14:11:13.135Z,0.53
2022-11-24T14:13:39.546Z,1.40
2022-11-24T14:16:06.091Z,1.20
2022-11-24T14:18:34.261Z,0.93
2022-11-24T14:21:16.586Z,0.97
2022-11-24T14:23:50.958Z,1.20
2022-11-24T14:26:20.537Z,1.00
2022-11-24T14:28:47.865Z,0.97
2022-11-24T14:31:25.097Z,1.30
2022-11-24T14:34:12.737Z,1.50
2022-11-24T14:36:39.855Z,0.90
2022-11-24T14:39:11.026Z,1.07
2022-11-24T14:41:37.501Z,1.33
2022-11-24T14:44:28.541Z,1.37
2022-11-24T14:47:14.920Z,0.97
2022-11-24T14:49:43.209Z,1.00
2022-11-24T14:52:14.309Z,1.03
2022-11-24T14:54:50.858Z,1.23
2022-11-24T14:57:24.917Z,1.57
2022-11-24T15:00:08.891Z,1.40
2022-11-24T15:02:46.243Z,0.80
2022-11-24T15:05:12.993Z,1.17
2022-11-24T15:07:43.419Z,1.27
2022-11-24T15:10:36.179Z,1.60
2022-11-24T15:13:15.290Z,1.53
2022-11-24T15:15:49.396Z,1.50
2022-11-24T15:18:46.770Z,1.33
2022-11-24T15:21:18.904Z,1.77
2022-11-24T15:24:06.342Z,1.00
2022-11-24T15:26:38.248Z,1.67
2022-11-24T15:29:07.991Z,1.00
2022-11-24T15:31:34.452Z,1.40
2022-11-24T15:34:00.960Z,1.23
2022-11-24T15:36:27.420Z,1.63
2022-11-24T15:38:53.774Z,1.30
2022-11-24T15:41:22.194Z,1.37
2022-11-24T15:43:48.652Z,1.40
2022-11-24T15:46:15.953Z,1.40
2022-11-24T15:48:42.426Z,1.00
2022-11-24T15:51:13.446Z,1.30
2022-11-24T15:53:44.188Z,2.00
2022-11-24T15:56:33.015Z,1.87
2022-11-24T15:59:00.192Z,2.10
2022-11-24T16:01:30.267Z,1.73
2022-11-24T16:03:56.829Z,2.03
2022-11-24T16:06:25.046Z,2.00
2022-11-24T16:08:52.845Z,1.80
2022-11-24T16:11:20.564Z,2.10
2022-11-24T16:13:51.814Z,2.00
2022-11-24T16:16:19.879Z,2.37
2022-11-24T16:18:46.453Z,1.70
2022-11-24T16:21:12.903Z,1.87
2022-11-24T16:23:39.350Z,1.90
2022-11-24T16:26:06.464Z,1.63
2022-11-24T16:28:33.201Z,2.93
2022-11-24T16:30:59.613Z,2.60
2022-11-24T16:33:26.047Z,2.10
2022-11-24T16:35:52.481Z,3.27
2022-11-24T16:38:20.014Z,3.00
2022-11-24T16:40:54.463Z,2.20
2022-11-24T16:43:20.931Z,2.93
2022-11-24T16:46:03.172Z,3.00
2022-11-24T16:48:46.154Z,3.57
2022-11-24T16:51:14.442Z,2.63
2022-11-24T16:53:42.791Z,4.00
2022-11-24T16:56:11.107Z,3.27
2022-11-24T16:58:43.697Z,3.47
2022-11-24T17:03:51.887Z,3.97
2022-11-24T17:06:19.101Z,4.67
2022-11-24T17:08:46.965Z,5.67
2022-11-24T17:11:16.081Z,4.67
2022-11-24T17:13:43.484Z,4.30
2022-11-24T17:16:12.227Z,4.40
2022-11-24T17:18:39.127Z,3.77
2022-11-24T17:21:09.735Z,3.73
2022-11-24T17:23:37.029Z,3.53
2022-11-24T17:26:21.762Z,3.07
2022-11-24T17:28:48.179Z,3.93
2022-11-24T17:31:23.001Z,3.33
2022-11-24T17:33:54.498Z,3.00
2022-11-24T17:36:22.154Z,3.30
2022-11-24T17:38:49.555Z,3.67
2022-11-24T17:41:19.865Z,2.87
2022-11-24T17:43:50.814Z,2.83
2022-11-24T17:46:17.480Z,3.30
2022-11-24T17:48:43.946Z,2.73
2022-11-24T17:51:16.089Z,3.20
2022-11-24T17:53:43.659Z,2.80
2022-11-24T17:56:15.024Z,2.60
2022-11-24T17:58:43.352Z,3.07
2022-11-24T18:01:11.202Z,3.03
2022-11-24T18:03:41.513Z,2.53
2022-11-24T18:06:10.342Z,2.50
2022-11-24T18:08:38.486Z,2.60
2022-11-24T18:11:09.243Z,3.57
2022-11-24T18:13:55.815Z,3.57
2022-11-24T18:16:24.286Z,3.70
2022-11-24T18:19:07.363Z,3.30
2022-11-24T18:21:35.227Z,3.80
2022-11-24T18:24:01.987Z,3.63
2022-11-24T18:26:28.638Z,4.10
2022-11-24T18:28:55.021Z,3.60
2022-11-24T18:31:22.568Z,4.27
2022-11-24T18:33:49.163Z,5.20
2022-11-24T18:36:18.464Z,5.60
2022-11-24T18:38:45.427Z,5.87
2022-11-24T18:41:13.603Z,3.70
2022-11-24T18:43:40.285Z,2.90
2022-11-24T18:46:08.319Z,3.87
2022-11-24T18:48:34.965Z,3.43
2022-11-24T18:51:01.863Z,3.90
2022-11-24T18:53:29.301Z,3.83
2022-11-24T18:55:58.813Z,4.53
2022-11-24T18:58:27.049Z,4.27
2022-11-24T19:00:55.173Z,3.63
2022-11-24T19:03:21.581Z,3.90
2022-11-24T19:05:47.998Z,3.77
2022-11-24T19:08:14.427Z,4.33
2022-11-24T19:10:41.941Z,4.77
2022-11-24T19:13:08.380Z,4.77
2022-11-24T19:15:35.426Z,5.07
2022-11-24T19:18:02.137Z,5.93
2022-11-24T19:20:28.878Z,5.80
2022-11-24T19:22:55.367Z,5.60
2022-11-24T19:25:21.779Z,5.60
2022-11-24T19:27:48.273Z,6.30
2022-11-24T19:30:16.619Z,6.23
2022-11-24T19:32:43.090Z,6.00
2022-11-24T19:35:10.092Z,6.13
2022-11-24T19:37:37.255Z,5.77
2022-11-24T19:40:04.499Z,4.90
2022-11-24T19:42:31.003Z,5.40
2022-11-24T19:44:57.374Z,5.37
2022-11-24T19:47:23.765Z,5.50
2022-11-24T19:49:50.284Z,5.43
2022-11-24T19:52:16.661Z,5.57
2022-11-24T19:54:43.209Z,5.17
2022-11-24T19:57:09.735Z,5.17
2022-11-24T19:59:36.128Z,6.33
2022-11-24T20:02:02.787Z,5.70
2022-11-24T20:04:29.601Z,5.00
2022-11-24T20:06:56.042Z,4.37
2022-11-24T20:09:22.437Z,5.50
2022-11-24T20:11:49.116Z,4.97
2022-11-24T20:14:26.118Z,5.30
2022-11-24T20:16:52.716Z,5.07
2022-11-24T20:19:19.187Z,3.90
2022-11-24T20:21:47.780Z,4.13
2022-11-24T20:24:19.329Z,4.50
2022-11-24T20:26:52.007Z,3.67
2022-11-24T20:29:19.173Z,4.43
2022-11-24T20:31:48.728Z,4.37
2022-11-24T20:34:15.981Z,4.60
2022-11-24T20:36:44.381Z,4.43
2022-11-24T20:39:34.004Z,4.43
2022-11-24T20:42:00.357Z,3.97
2022-11-24T20:44:27.642Z,4.00
2022-11-24T20:46:56.659Z,3.67
2022-11-24T20:49:23.189Z,3.60
2022-11-24T20:51:54.198Z,3.47
2022-11-24T20:54:21.553Z,3.97
2022-11-24T20:56:48.457Z,4.50
2022-11-24T20:59:18.184Z,3.83
2022-11-24T21:01:46.448Z,4.23
2022-11-24T21:04:16.958Z,4.50
2022-11-24T21:06:43.448Z,4.63
2022-11-24T21:09:10.465Z,4.47
2022-11-24T21:11:38.039Z,4.43
2022-11-24T21:14:05.404Z,5.27
2022-11-24T21:16:34.724Z,5.30
2022-11-24T21:19:04.300Z,4.33
2022-11-24T21:21:34.578Z,4.30
2022-11-24T21:24:06.815Z,4.80
2022-11-24T21:26:37.188Z,5.00
2022-11-24T21:29:04.233Z,4.77
2022-11-24T21:31:30.720Z,4.70
2022-11-24T21:33:57.163Z,5.30
2022-11-24T21:36:25.571Z,4.90
2022-11-24T21:39:02.455Z,4.70
2022-11-24T21:41:32.523Z,4.17
2022-11-24T21:43:59.042Z,4.70
2022-11-24T21:46:25.662Z,5.30
2022-11-24T21:48:52.097Z,5.47
2022-11-24T21:51:20.311Z,5.43
2022-11-24T21:53:47.566Z,6.93
2022-11-24T21:56:16.941Z,7.27
2022-11-24T21:58:45.620Z,7.37
2022-11-24T22:01:12.421Z,7.23
2022-11-24T22:03:38.830Z,6.50
2022-11-24T22:06:05.618Z,6.03
2022-11-24T22:08:32.500Z,5.53
2022-11-24T22:11:04.399Z,5.50
2022-11-24T22:13:31.153Z,6.23
2022-11-24T22:16:05.301Z,5.80
2022-11-24T22:18:34.038Z,6.17
2022-11-24T22:21:02.770Z,6.13
2022-11-24T22:23:33.501Z,5.60
2022-11-24T22:26:10.014Z,5.37
2022-11-24T22:28:36.825Z,4.90
2022-11-24T22:31:13.231Z,5.43
2022-11-24T22:33:40.108Z,4.93
2022-11-24T22:36:07.374Z,5.80
2022-11-24T22:38:34.279Z,6.80
2022-11-24T22:41:06.247Z,6.87
2022-11-24T22:43:34.186Z,6.77
2022-11-24T22:46:26.048Z,7.83
2022-11-24T22:48:54.006Z,7.40
2022-11-24T22:51:26.429Z,8.03
2022-11-24T22:53:56.159Z,7.80
2022-11-24T22:56:23.740Z,6.53
2022-11-24T22:58:50.842Z,6.07
2022-11-24T23:01:22.641Z,6.23
2022-11-24T23:03:50.106Z,6.60
2022-11-24T23:06:22.459Z,9.13
2022-11-24T23:08:49.703Z,9.40
2022-11-24T23:11:24.662Z,9.63
2022-11-24T23:13:58.483Z,8.43
2022-11-24T23:16:24.991Z,7.00
2022-11-24T23:18:54.065Z,6.03
2022-11-24T23:21:30.708Z,5.70
2022-11-24T23:23:59.325Z,5.50
2022-11-24T23:26:32.360Z,5.17
2022-11-24T23:28:58.847Z,4.90
2022-11-24T23:31:30.267Z,4.73
2022-11-24T23:34:01.901Z,5.27
2022-11-24T23:36:29.291Z,4.43
2022-11-24T23:38:55.897Z,4.63
2022-11-24T23:41:24.958Z,4.30
2022-11-24T23:43:52.437Z,4.47
2022-11-24T23:46:21.373Z,4.07
2022-11-24T23:48:49.235Z,4.80
2022-11-24T23:51:18.860Z,4.13
2022-11-24T23:53:45.712Z,3.97
2022-11-24T23:56:14.935Z,4.03
2022-11-24T23:58:41.779Z,4.00
